sensor_id;sensor_type;location;lat;lon;timestamp;P1;durP1;ratioP1;P2;durP2;ratioP2
74213;SDS011;62576;55.694;37.494;2022-09-13T00:01:16;10.25;;;6.25;;
74213;SDS011;62576;55.694;37.494;2022-09-13T00:03:46;12.63;;;6.45;;
74213;SDS011;62576;55.694;37.494;2022-09-13T00:06:18;12.38;;;7.00;;
74213;SDS011;62576;55.694;37.494;2022-09-13T00:08:49;10.70;;;6.43;;
74213;SDS011;62576;55.694;37.494;2022-09-13T00:11:22;14.00;;;6.07;;
74213;SDS011;62576;55.694;37.494;2022-09-13T00:13:53;12.55;;;6.03;;
74213;SDS011;62576;55.694;37.494;2022-09-13T00:16:25;12.65;;;6.00;;
74213;SDS011;62576;55.694;37.494;2022-09-13T00:18:58;10.98;;;6.22;;
74213;SDS011;62576;55.694;37.494;2022-09-13T00:21:30;13.02;;;6.18;;
74213;SDS011;62576;55.694;37.494;2022-09-13T00:23:59;13.65;;;5.72;;
74213;SDS011;62576;55.694;37.494;2022-09-13T00:26:29;14.23;;;6.35;;
74213;SDS011;62576;55.694;37.494;2022-09-13T00:28:59;15.57;;;6.07;;
74213;SDS011;62576;55.694;37.494;2022-09-13T00:31:29;11.65;;;6.15;;
74213;SDS011;62576;55.694;37.494;2022-09-13T00:34:01;10.88;;;6.07;;
74213;SDS011;62576;55.694;37.494;2022-09-13T00:36:32;11.88;;;6.32;;
74213;SDS011;62576;55.694;37.494;2022-09-13T00:39:02;10.48;;;6.20;;
74213;SDS011;62576;55.694;37.494;2022-09-13T00:41:34;11.68;;;5.55;;
74213;SDS011;62576;55.694;37.494;2022-09-13T00:44:04;9.13;;;5.75;;
74213;SDS011;62576;55.694;37.494;2022-09-13T00:46:54;11.80;;;5.90;;
74213;SDS011;62576;55.694;37.494;2022-09-13T00:49:27;14.23;;;5.95;;
74213;SDS011;62576;55.694;37.494;2022-09-13T00:52:00;11.93;;;6.18;;
74213;SDS011;62576;55.694;37.494;2022-09-13T00:54:35;12.52;;;6.05;;
74213;SDS011;62576;55.694;37.494;2022-09-13T00:57:10;11.63;;;5.82;;
74213;SDS011;62576;55.694;37.494;2022-09-13T00:59:43;9.80;;;6.03;;
74213;SDS011;62576;55.694;37.494;2022-09-13T01:02:16;11.13;;;6.60;;
74213;SDS011;62576;55.694;37.494;2022-09-13T01:04:46;11.27;;;6.10;;
74213;SDS011;62576;55.694;37.494;2022-09-13T01:07:17;14.65;;;6.15;;
74213;SDS011;62576;55.694;37.494;2022-09-13T01:09:48;12.73;;;6.50;;
74213;SDS011;62576;55.694;37.494;2022-09-13T01:12:24;12.60;;;6.05;;
74213;SDS011;62576;55.694;37.494;2022-09-13T01:15:00;14.02;;;6.57;;
74213;SDS011;62576;55.694;37.494;2022-09-13T01:17:33;13.13;;;7.00;;
74213;SDS011;62576;55.694;37.494;2022-09-13T01:20:06;13.48;;;6.53;;
74213;SDS011;62576;55.694;37.494;2022-09-13T01:26:04;10.70;;;5.90;;
74213;SDS011;62576;55.694;37.494;2022-09-13T01:29:25;16.70;;;6.60;;
74213;SDS011;62576;55.694;37.494;2022-09-13T01:32:12;13.02;;;6.00;;
74213;SDS011;62576;55.694;37.494;2022-09-13T01:34:52;12.25;;;6.20;;
74213;SDS011;62576;55.694;37.494;2022-09-13T01:37:36;14.75;;;6.70;;
74213;SDS011;62576;55.694;37.494;2022-09-13T01:40:17;10.95;;;6.10;;
74213;SDS011;62576;55.694;37.494;2022-09-13T01:43:09;12.40;;;6.40;;
74213;SDS011;62576;55.694;37.494;2022-09-13T01:45:55;11.73;;;6.50;;
74213;SDS011;62576;55.694;37.494;2022-09-13T01:48:35;13.00;;;6.50;;
74213;SDS011;62576;55.694;37.494;2022-09-13T01:51:21;15.73;;;6.82;;
74213;SDS011;62576;55.694;37.494;2022-09-13T01:53:58;13.20;;;6.20;;
74213;SDS011;62576;55.694;37.494;2022-09-13T01:56:41;13.50;;;6.45;;
74213;SDS011;62576;55.694;37.494;2022-09-13T01:59:19;14.00;;;6.68;;
74213;SDS011;62576;55.694;37.494;2022-09-13T02:01:53;13.77;;;6.20;;
74213;SDS011;62576;55.694;37.494;2022-09-13T02:04:32;16.45;;;6.78;;
74213;SDS011;62576;55.694;37.494;2022-09-13T02:07:06;13.32;;;6.47;;
74213;SDS011;62576;55.694;37.494;2022-09-13T02:09:42;11.60;;;6.13;;
74213;SDS011;62576;55.694;37.494;2022-09-13T02:12:18;15.00;;;6.07;;
74213;SDS011;62576;55.694;37.494;2022-09-13T02:14:52;15.38;;;6.20;;
74213;SDS011;62576;55.694;37.494;2022-09-13T02:17:27;10.65;;;6.15;;
74213;SDS011;62576;55.694;37.494;2022-09-13T02:20:04;12.07;;;6.25;;
74213;SDS011;62576;55.694;37.494;2022-09-13T02:22:40;10.73;;;6.57;;
74213;SDS011;62576;55.694;37.494;2022-09-13T02:25:15;11.45;;;6.32;;
74213;SDS011;62576;55.694;37.494;2022-09-13T02:27:51;11.55;;;6.18;;
74213;SDS011;62576;55.694;37.494;2022-09-13T02:30:26;12.57;;;6.45;;
74213;SDS011;62576;55.694;37.494;2022-09-13T02:32:58;11.90;;;6.35;;
74213;SDS011;62576;55.694;37.494;2022-09-13T02:35:35;13.75;;;6.82;;
74213;SDS011;62576;55.694;37.494;2022-09-13T02:38:10;16.27;;;8.35;;
74213;SDS011;62576;55.694;37.494;2022-09-13T02:40:45;19.45;;;9.23;;
74213;SDS011;62576;55.694;37.494;2022-09-13T02:43:23;18.67;;;9.18;;
74213;SDS011;62576;55.694;37.494;2022-09-13T02:46:02;23.08;;;10.32;;
74213;SDS011;62576;55.694;37.494;2022-09-13T02:48:46;18.52;;;9.93;;
74213;SDS011;62576;55.694;37.494;2022-09-13T02:51:27;17.05;;;8.95;;
74213;SDS011;62576;55.694;37.494;2022-09-13T02:54:08;18.77;;;8.65;;
74213;SDS011;62576;55.694;37.494;2022-09-13T02:56:49;18.03;;;8.80;;
74213;SDS011;62576;55.694;37.494;2022-09-13T02:59:22;16.48;;;8.30;;
74213;SDS011;62576;55.694;37.494;2022-09-13T03:01:53;15.77;;;7.50;;
74213;SDS011;62576;55.694;37.494;2022-09-13T03:04:28;13.60;;;7.70;;
74213;SDS011;62576;55.694;37.494;2022-09-13T03:07:00;17.27;;;8.00;;
74213;SDS011;62576;55.694;37.494;2022-09-13T03:09:31;17.55;;;7.68;;
74213;SDS011;62576;55.694;37.494;2022-09-13T03:12:07;13.70;;;7.80;;
74213;SDS011;62576;55.694;37.494;2022-09-13T03:14:54;14.20;;;6.82;;
74213;SDS011;62576;55.694;37.494;2022-09-13T03:17:39;13.80;;;6.75;;
74213;SDS011;62576;55.694;37.494;2022-09-13T03:20:20;13.77;;;7.25;;
74213;SDS011;62576;55.694;37.494;2022-09-13T03:23:14;15.00;;;7.50;;
74213;SDS011;62576;55.694;37.494;2022-09-13T03:26:16;14.82;;;7.22;;
74213;SDS011;62576;55.694;37.494;2022-09-13T03:28:55;11.20;;;6.80;;
74213;SDS011;62576;55.694;37.494;2022-09-13T03:31:40;15.23;;;6.97;;
74213;SDS011;62576;55.694;37.494;2022-09-13T03:34:23;16.30;;;7.22;;
74213;SDS011;62576;55.694;37.494;2022-09-13T03:37:02;14.45;;;7.53;;
74213;SDS011;62576;55.694;37.494;2022-09-13T03:39:40;15.63;;;7.75;;
74213;SDS011;62576;55.694;37.494;2022-09-13T03:42:17;15.90;;;7.13;;
74213;SDS011;62576;55.694;37.494;2022-09-13T03:44:52;13.55;;;7.90;;
74213;SDS011;62576;55.694;37.494;2022-09-13T03:47:25;15.65;;;7.88;;
74213;SDS011;62576;55.694;37.494;2022-09-13T03:49:59;16.42;;;7.20;;
74213;SDS011;62576;55.694;37.494;2022-09-13T03:52:31;14.93;;;7.13;;
74213;SDS011;62576;55.694;37.494;2022-09-13T03:55:00;15.85;;;7.50;;
74213;SDS011;62576;55.694;37.494;2022-09-13T03:57:30;14.30;;;7.35;;
74213;SDS011;62576;55.694;37.494;2022-09-13T04:00:00;13.90;;;7.70;;
74213;SDS011;62576;55.694;37.494;2022-09-13T04:02:31;13.35;;;7.50;;
74213;SDS011;62576;55.694;37.494;2022-09-13T04:05:00;14.93;;;8.10;;
74213;SDS011;62576;55.694;37.494;2022-09-13T04:07:30;17.83;;;8.32;;
74213;SDS011;62576;55.694;37.494;2022-09-13T04:10:02;15.52;;;7.70;;
74213;SDS011;62576;55.694;37.494;2022-09-13T04:12:33;17.38;;;7.75;;
74213;SDS011;62576;55.694;37.494;2022-09-13T04:15:03;12.55;;;7.57;;
74213;SDS011;62576;55.694;37.494;2022-09-13T04:17:34;18.88;;;7.75;;
74213;SDS011;62576;55.694;37.494;2022-09-13T04:20:04;18.90;;;8.32;;
74213;SDS011;62576;55.694;37.494;2022-09-13T04:22:34;15.82;;;7.78;;
74213;SDS011;62576;55.694;37.494;2022-09-13T04:25:06;13.93;;;7.43;;
74213;SDS011;62576;55.694;37.494;2022-09-13T04:27:38;17.20;;;8.20;;
74213;SDS011;62576;55.694;37.494;2022-09-13T04:30:09;24.00;;;7.88;;
74213;SDS011;62576;55.694;37.494;2022-09-13T04:32:41;18.00;;;8.25;;
74213;SDS011;62576;55.694;37.494;2022-09-13T04:35:12;14.27;;;7.72;;
74213;SDS011;62576;55.694;37.494;2022-09-13T04:37:47;18.67;;;7.95;;
74213;SDS011;62576;55.694;37.494;2022-09-13T04:40:18;19.67;;;7.78;;
74213;SDS011;62576;55.694;37.494;2022-09-13T04:42:50;21.20;;;8.90;;
74213;SDS011;62576;55.694;37.494;2022-09-13T04:45:20;17.90;;;8.02;;
74213;SDS011;62576;55.694;37.494;2022-09-13T04:47:50;15.77;;;8.48;;
74213;SDS011;62576;55.694;37.494;2022-09-13T04:50:21;17.60;;;8.07;;
74213;SDS011;62576;55.694;37.494;2022-09-13T04:52:53;16.85;;;8.30;;
74213;SDS011;62576;55.694;37.494;2022-09-13T04:55:22;15.30;;;7.93;;
74213;SDS011;62576;55.694;37.494;2022-09-13T04:57:53;20.60;;;8.45;;
74213;SDS011;62576;55.694;37.494;2022-09-13T05:00:23;17.40;;;8.07;;
74213;SDS011;62576;55.694;37.494;2022-09-13T05:02:53;17.23;;;8.23;;
74213;SDS011;62576;55.694;37.494;2022-09-13T05:05:24;19.20;;;8.73;;
74213;SDS011;62576;55.694;37.494;2022-09-13T05:07:56;16.90;;;8.52;;
74213;SDS011;62576;55.694;37.494;2022-09-13T05:10:27;18.77;;;7.97;;
74213;SDS011;62576;55.694;37.494;2022-09-13T05:12:57;15.25;;;7.57;;
74213;SDS011;62576;55.694;37.494;2022-09-13T05:15:30;14.50;;;7.70;;
74213;SDS011;62576;55.694;37.494;2022-09-13T05:18:00;17.10;;;7.95;;
74213;SDS011;62576;55.694;37.494;2022-09-13T05:20:30;19.65;;;7.90;;
74213;SDS011;62576;55.694;37.494;2022-09-13T05:23:00;18.33;;;8.13;;
74213;SDS011;62576;55.694;37.494;2022-09-13T05:25:31;19.40;;;7.75;;
74213;SDS011;62576;55.694;37.494;2022-09-13T05:28:01;16.77;;;8.20;;
74213;SDS011;62576;55.694;37.494;2022-09-13T05:30:31;15.80;;;8.23;;
74213;SDS011;62576;55.694;37.494;2022-09-13T05:33:01;21.45;;;8.38;;
74213;SDS011;62576;55.694;37.494;2022-09-13T05:35:31;16.75;;;8.00;;
74213;SDS011;62576;55.694;37.494;2022-09-13T05:38:01;18.45;;;8.57;;
74213;SDS011;62576;55.694;37.494;2022-09-13T05:40:35;19.52;;;7.95;;
74213;SDS011;62576;55.694;37.494;2022-09-13T05:43:05;15.27;;;8.23;;
74213;SDS011;62576;55.694;37.494;2022-09-13T05:45:35;16.17;;;8.02;;
74213;SDS011;62576;55.694;37.494;2022-09-13T05:48:05;20.48;;;7.88;;
74213;SDS011;62576;55.694;37.494;2022-09-13T05:50:38;20.23;;;7.95;;
74213;SDS011;62576;55.694;37.494;2022-09-13T05:53:08;16.88;;;8.13;;
74213;SDS011;62576;55.694;37.494;2022-09-13T05:55:36;18.88;;;8.18;;
74213;SDS011;62576;55.694;37.494;2022-09-13T05:58:06;18.70;;;8.35;;
74213;SDS011;62576;55.694;37.494;2022-09-13T06:00:36;18.73;;;8.23;;
74213;SDS011;62576;55.694;37.494;2022-09-13T06:03:06;18.60;;;8.10;;
74213;SDS011;62576;55.694;37.494;2022-09-13T06:05:36;17.73;;;8.57;;
74213;SDS011;62576;55.694;37.494;2022-09-13T06:08:06;16.30;;;7.60;;
74213;SDS011;62576;55.694;37.494;2022-09-13T06:10:38;18.35;;;7.70;;
74213;SDS011;62576;55.694;37.494;2022-09-13T06:13:08;18.67;;;7.82;;
74213;SDS011;62576;55.694;37.494;2022-09-13T06:15:38;18.17;;;7.75;;
74213;SDS011;62576;55.694;37.494;2022-09-13T06:18:05;15.57;;;7.35;;
74213;SDS011;62576;55.694;37.494;2022-09-13T06:20:35;17.88;;;7.78;;
74213;SDS011;62576;55.694;37.494;2022-09-13T06:23:05;16.98;;;7.43;;
74213;SDS011;62576;55.694;37.494;2022-09-13T06:25:35;15.70;;;7.93;;
74213;SDS011;62576;55.694;37.494;2022-09-13T06:28:06;16.98;;;7.13;;
74213;SDS011;62576;55.694;37.494;2022-09-13T06:30:37;17.73;;;7.40;;
74213;SDS011;62576;55.694;37.494;2022-09-13T06:33:06;20.42;;;7.68;;
74213;SDS011;62576;55.694;37.494;2022-09-13T06:35:36;12.07;;;7.30;;
74213;SDS011;62576;55.694;37.494;2022-09-13T06:38:06;16.65;;;7.53;;
74213;SDS011;62576;55.694;37.494;2022-09-13T06:40:36;16.42;;;7.97;;
74213;SDS011;62576;55.694;37.494;2022-09-13T06:43:07;17.58;;;7.47;;
74213;SDS011;62576;55.694;37.494;2022-09-13T06:45:38;17.17;;;7.70;;
74213;SDS011;62576;55.694;37.494;2022-09-13T06:48:09;19.67;;;8.30;;
74213;SDS011;62576;55.694;37.494;2022-09-13T06:50:39;16.20;;;7.05;;
74213;SDS011;62576;55.694;37.494;2022-09-13T06:53:08;17.75;;;7.60;;
74213;SDS011;62576;55.694;37.494;2022-09-13T06:55:37;16.90;;;7.63;;
74213;SDS011;62576;55.694;37.494;2022-09-13T06:58:08;16.67;;;7.90;;
74213;SDS011;62576;55.694;37.494;2022-09-13T07:00:40;17.23;;;7.97;;
74213;SDS011;62576;55.694;37.494;2022-09-13T07:03:10;19.02;;;9.10;;
74213;SDS011;62576;55.694;37.494;2022-09-13T07:05:40;20.48;;;8.48;;
74213;SDS011;62576;55.694;37.494;2022-09-13T07:08:10;21.30;;;8.38;;
74213;SDS011;62576;55.694;37.494;2022-09-13T07:10:39;18.13;;;7.80;;
74213;SDS011;62576;55.694;37.494;2022-09-13T07:13:11;18.67;;;8.38;;
74213;SDS011;62576;55.694;37.494;2022-09-13T07:15:41;19.92;;;8.32;;
74213;SDS011;62576;55.694;37.494;2022-09-13T07:18:11;17.95;;;8.05;;
74213;SDS011;62576;55.694;37.494;2022-09-13T07:20:40;18.52;;;8.15;;
74213;SDS011;62576;55.694;37.494;2022-09-13T07:23:10;16.65;;;7.63;;
74213;SDS011;62576;55.694;37.494;2022-09-13T07:25:41;19.15;;;8.40;;
74213;SDS011;62576;55.694;37.494;2022-09-13T07:28:12;17.45;;;7.57;;
74213;SDS011;62576;55.694;37.494;2022-09-13T07:30:42;15.45;;;7.70;;
74213;SDS011;62576;55.694;37.494;2022-09-13T07:33:12;14.77;;;7.75;;
74213;SDS011;62576;55.694;37.494;2022-09-13T07:35:43;17.73;;;7.82;;
74213;SDS011;62576;55.694;37.494;2022-09-13T07:38:13;14.88;;;8.18;;
74213;SDS011;62576;55.694;37.494;2022-09-13T07:40:43;19.98;;;8.10;;
74213;SDS011;62576;55.694;37.494;2022-09-13T07:43:23;21.08;;;8.65;;
74213;SDS011;62576;55.694;37.494;2022-09-13T07:45:57;18.13;;;8.10;;
74213;SDS011;62576;55.694;37.494;2022-09-13T07:48:28;14.90;;;7.88;;
74213;SDS011;62576;55.694;37.494;2022-09-13T07:51:00;16.88;;;7.70;;
74213;SDS011;62576;55.694;37.494;2022-09-13T07:53:32;18.25;;;7.97;;
74213;SDS011;62576;55.694;37.494;2022-09-13T07:56:03;18.00;;;7.10;;
74213;SDS011;62576;55.694;37.494;2022-09-13T07:58:36;19.30;;;7.35;;
74213;SDS011;62576;55.694;37.494;2022-09-13T08:01:07;11.75;;;6.95;;
74213;SDS011;62576;55.694;37.494;2022-09-13T08:03:39;15.25;;;7.40;;
74213;SDS011;62576;55.694;37.494;2022-09-13T08:06:09;14.00;;;6.80;;
74213;SDS011;62576;55.694;37.494;2022-09-13T08:08:39;15.07;;;7.03;;
74213;SDS011;62576;55.694;37.494;2022-09-13T08:11:09;11.35;;;6.97;;
74213;SDS011;62576;55.694;37.494;2022-09-13T08:13:46;13.52;;;6.53;;
74213;SDS011;62576;55.694;37.494;2022-09-13T08:16:17;12.57;;;6.38;;
74213;SDS011;62576;55.694;37.494;2022-09-13T08:18:48;10.30;;;6.22;;
74213;SDS011;62576;55.694;37.494;2022-09-13T08:21:19;13.07;;;6.22;;
74213;SDS011;62576;55.694;37.494;2022-09-13T08:23:53;13.77;;;6.53;;
74213;SDS011;62576;55.694;37.494;2022-09-13T08:26:23;14.18;;;5.90;;
74213;SDS011;62576;55.694;37.494;2022-09-13T08:28:58;10.65;;;5.88;;
74213;SDS011;62576;55.694;37.494;2022-09-13T08:31:30;12.10;;;5.63;;
74213;SDS011;62576;55.694;37.494;2022-09-13T08:34:00;12.38;;;5.53;;
74213;SDS011;62576;55.694;37.494;2022-09-13T08:36:30;14.63;;;5.30;;
74213;SDS011;62576;55.694;37.494;2022-09-13T08:39:00;11.82;;;5.55;;
74213;SDS011;62576;55.694;37.494;2022-09-13T08:41:37;11.35;;;5.55;;
74213;SDS011;62576;55.694;37.494;2022-09-13T08:44:26;11.73;;;5.72;;
74213;SDS011;62576;55.694;37.494;2022-09-13T08:47:00;9.98;;;5.45;;
74213;SDS011;62576;55.694;37.494;2022-09-13T08:49:43;16.85;;;5.72;;
74213;SDS011;62576;55.694;37.494;2022-09-13T08:52:18;10.82;;;5.07;;
74213;SDS011;62576;55.694;37.494;2022-09-13T08:54:53;13.35;;;5.43;;
74213;SDS011;62576;55.694;37.494;2022-09-13T08:57:25;9.35;;;4.80;;
74213;SDS011;62576;55.694;37.494;2022-09-13T09:00:03;8.73;;;4.88;;
74213;SDS011;62576;55.694;37.494;2022-09-13T09:02:46;11.80;;;5.05;;
74213;SDS011;62576;55.694;37.494;2022-09-13T09:05:25;8.02;;;4.20;;
74213;SDS011;62576;55.694;37.494;2022-09-13T09:07:58;11.25;;;4.60;;
74213;SDS011;62576;55.694;37.494;2022-09-13T09:10:32;14.73;;;4.40;;
74213;SDS011;62576;55.694;37.494;2022-09-13T09:13:08;10.38;;;3.75;;
74213;SDS011;62576;55.694;37.494;2022-09-13T09:15:49;8.32;;;3.58;;
74213;SDS011;62576;55.694;37.494;2022-09-13T09:18:22;8.07;;;3.60;;
74213;SDS011;62576;55.694;37.494;2022-09-13T09:20:54;9.73;;;3.50;;
74213;SDS011;62576;55.694;37.494;2022-09-13T09:23:25;10.00;;;3.75;;
74213;SDS011;62576;55.694;37.494;2022-09-13T09:26:04;6.70;;;3.38;;
74213;SDS011;62576;55.694;37.494;2022-09-13T09:28:45;15.07;;;3.40;;
74213;SDS011;62576;55.694;37.494;2022-09-13T09:31:21;6.70;;;3.00;;
74213;SDS011;62576;55.694;37.494;2022-09-13T09:33:59;8.35;;;3.45;;
74213;SDS011;62576;55.694;37.494;2022-09-13T09:36:39;6.88;;;3.00;;
74213;SDS011;62576;55.694;37.494;2022-09-13T09:39:13;7.35;;;2.65;;
74213;SDS011;62576;55.694;37.494;2022-09-13T09:41:44;8.85;;;2.88;;
74213;SDS011;62576;55.694;37.494;2022-09-13T09:44:18;6.90;;;2.70;;
74213;SDS011;62576;55.694;37.494;2022-09-13T09:46:51;8.45;;;2.88;;
74213;SDS011;62576;55.694;37.494;2022-09-13T09:49:25;7.13;;;2.97;;
74213;SDS011;62576;55.694;37.494;2022-09-13T09:52:22;14.48;;;3.00;;
74213;SDS011;62576;55.694;37.494;2022-09-13T09:54:55;7.80;;;2.80;;
74213;SDS011;62576;55.694;37.494;2022-09-13T10:00:22;6.63;;;2.78;;
74213;SDS011;62576;55.694;37.494;2022-09-13T10:02:57;5.32;;;2.67;;
74213;SDS011;62576;55.694;37.494;2022-09-13T10:05:30;7.03;;;2.90;;
74213;SDS011;62576;55.694;37.494;2022-09-13T10:08:00;5.85;;;2.65;;
74213;SDS011;62576;55.694;37.494;2022-09-13T10:10:36;8.38;;;2.60;;
74213;SDS011;62576;55.694;37.494;2022-09-13T10:13:12;6.55;;;2.72;;
74213;SDS011;62576;55.694;37.494;2022-09-13T10:18:32;5.78;;;2.60;;
74213;SDS011;62576;55.694;37.494;2022-09-13T10:21:04;7.30;;;3.00;;
74213;SDS011;62576;55.694;37.494;2022-09-13T10:23:35;6.03;;;2.25;;
74213;SDS011;62576;55.694;37.494;2022-09-13T10:26:07;9.32;;;2.15;;
74213;SDS011;62576;55.694;37.494;2022-09-13T10:28:41;5.88;;;2.20;;
74213;SDS011;62576;55.694;37.494;2022-09-13T10:31:15;10.13;;;2.28;;
74213;SDS011;62576;55.694;37.494;2022-09-13T10:33:54;8.50;;;1.83;;
74213;SDS011;62576;55.694;37.494;2022-09-13T10:36:28;7.13;;;2.20;;
74213;SDS011;62576;55.694;37.494;2022-09-13T10:39:00;5.70;;;1.90;;
74213;SDS011;62576;55.694;37.494;2022-09-13T10:41:33;8.73;;;1.90;;
74213;SDS011;62576;55.694;37.494;2022-09-13T10:44:06;6.05;;;2.00;;
74213;SDS011;62576;55.694;37.494;2022-09-13T10:46:53;12.63;;;2.40;;
74213;SDS011;62576;55.694;37.494;2022-09-13T10:49:35;3.70;;;2.00;;
74213;SDS011;62576;55.694;37.494;2022-09-13T10:52:21;3.58;;;2.00;;
74213;SDS011;62576;55.694;37.494;2022-09-13T10:54:50;6.20;;;1.88;;
74213;SDS011;62576;55.694;37.494;2022-09-13T10:57:30;6.63;;;2.17;;
74213;SDS011;62576;55.694;37.494;2022-09-13T11:00:03;6.88;;;2.22;;
74213;SDS011;62576;55.694;37.494;2022-09-13T11:02:47;5.18;;;2.00;;
74213;SDS011;62576;55.694;37.494;2022-09-13T11:05:30;10.10;;;2.20;;
74213;SDS011;62576;55.694;37.494;2022-09-13T11:08:20;5.70;;;2.15;;
74213;SDS011;62576;55.694;37.494;2022-09-13T11:11:05;4.40;;;2.00;;
74213;SDS011;62576;55.694;37.494;2022-09-13T11:13:50;9.15;;;1.90;;
74213;SDS011;62576;55.694;37.494;2022-09-13T11:16:31;4.35;;;1.73;;
74213;SDS011;62576;55.694;37.494;2022-09-13T11:19:13;4.60;;;2.00;;
74213;SDS011;62576;55.694;37.494;2022-09-13T11:22:07;9.98;;;2.25;;
74213;SDS011;62576;55.694;37.494;2022-09-13T11:24:51;9.18;;;1.90;;
74213;SDS011;62576;55.694;37.494;2022-09-13T11:27:38;6.32;;;2.05;;
74213;SDS011;62576;55.694;37.494;2022-09-13T11:30:19;5.43;;;2.20;;
74213;SDS011;62576;55.694;37.494;2022-09-13T11:35:56;6.90;;;2.25;;
74213;SDS011;62576;55.694;37.494;2022-09-13T11:38:43;9.05;;;2.10;;
74213;SDS011;62576;55.694;37.494;2022-09-13T11:41:25;5.43;;;2.05;;
74213;SDS011;62576;55.694;37.494;2022-09-13T11:47:03;7.07;;;2.10;;
74213;SDS011;62576;55.694;37.494;2022-09-13T11:52:44;5.47;;;2.20;;
74213;SDS011;62576;55.694;37.494;2022-09-13T11:55:25;4.20;;;2.20;;
74213;SDS011;62576;55.694;37.494;2022-09-13T11:57:59;7.05;;;2.55;;
74213;SDS011;62576;55.694;37.494;2022-09-13T12:00:33;8.48;;;2.35;;
74213;SDS011;62576;55.694;37.494;2022-09-13T12:03:10;6.30;;;2.17;;
74213;SDS011;62576;55.694;37.494;2022-09-13T12:05:49;7.40;;;2.67;;
74213;SDS011;62576;55.694;37.494;2022-09-13T12:08:23;11.63;;;2.35;;
74213;SDS011;62576;55.694;37.494;2022-09-13T12:11:00;12.32;;;2.83;;
74213;SDS011;62576;55.694;37.494;2022-09-13T12:13:35;6.47;;;2.92;;
74213;SDS011;62576;55.694;37.494;2022-09-13T12:16:11;4.53;;;2.13;;
74213;SDS011;62576;55.694;37.494;2022-09-13T12:18:47;7.88;;;2.28;;
74213;SDS011;62576;55.694;37.494;2022-09-13T12:21:19;6.72;;;2.30;;
74213;SDS011;62576;55.694;37.494;2022-09-13T12:23:53;6.57;;;2.13;;
74213;SDS011;62576;55.694;37.494;2022-09-13T12:26:34;6.85;;;2.28;;
74213;SDS011;62576;55.694;37.494;2022-09-13T12:29:10;5.60;;;2.10;;
74213;SDS011;62576;55.694;37.494;2022-09-13T12:31:44;5.60;;;2.20;;
74213;SDS011;62576;55.694;37.494;2022-09-13T12:34:16;8.18;;;2.50;;
74213;SDS011;62576;55.694;37.494;2022-09-13T12:37:00;6.90;;;2.25;;
74213;SDS011;62576;55.694;37.494;2022-09-13T12:40:02;4.20;;;2.03;;
74213;SDS011;62576;55.694;37.494;2022-09-13T12:45:50;5.13;;;2.00;;
74213;SDS011;62576;55.694;37.494;2022-09-13T12:51:41;5.60;;;2.10;;
74213;SDS011;62576;55.694;37.494;2022-09-13T12:57:26;9.73;;;2.30;;
74213;SDS011;62576;55.694;37.494;2022-09-13T13:00:10;9.13;;;2.10;;
74213;SDS011;62576;55.694;37.494;2022-09-13T13:02:51;6.10;;;2.10;;
74213;SDS011;62576;55.694;37.494;2022-09-13T13:05:30;5.00;;;1.80;;
74213;SDS011;62576;55.694;37.494;2022-09-13T13:08:04;7.93;;;2.45;;
74213;SDS011;62576;55.694;37.494;2022-09-13T13:10:43;6.53;;;2.10;;
74213;SDS011;62576;55.694;37.494;2022-09-13T13:13:31;6.75;;;2.67;;
74213;SDS011;62576;55.694;37.494;2022-09-13T13:16:05;7.22;;;1.90;;
74213;SDS011;62576;55.694;37.494;2022-09-13T13:18:53;6.30;;;2.05;;
74213;SDS011;62576;55.694;37.494;2022-09-13T13:33:18;5.50;;;2.20;;
74213;SDS011;62576;55.694;37.494;2022-09-13T13:35:55;3.85;;;1.98;;
74213;SDS011;62576;55.694;37.494;2022-09-13T13:38:39;7.13;;;2.30;;
74213;SDS011;62576;55.694;37.494;2022-09-13T13:50:20;7.80;;;2.38;;
74213;SDS011;62576;55.694;37.494;2022-09-13T13:52:52;8.68;;;2.90;;
74213;SDS011;62576;55.694;37.494;2022-09-13T13:55:38;10.48;;;2.90;;
74213;SDS011;62576;55.694;37.494;2022-09-13T14:01:01;5.20;;;2.50;;
74213;SDS011;62576;55.694;37.494;2022-09-13T14:03:45;5.82;;;2.55;;
74213;SDS011;62576;55.694;37.494;2022-09-13T14:06:23;8.52;;;2.70;;
74213;SDS011;62576;55.694;37.494;2022-09-13T14:09:06;6.85;;;2.33;;
74213;SDS011;62576;55.694;37.494;2022-09-13T14:11:52;6.55;;;2.85;;
74213;SDS011;62576;55.694;37.494;2022-09-13T14:17:24;11.00;;;2.88;;
74213;SDS011;62576;55.694;37.494;2022-09-13T14:20:11;11.23;;;2.90;;
74213;SDS011;62576;55.694;37.494;2022-09-13T14:22:45;10.60;;;3.38;;
74213;SDS011;62576;55.694;37.494;2022-09-13T14:25:22;7.65;;;3.30;;
74213;SDS011;62576;55.694;37.494;2022-09-13T14:27:55;8.10;;;2.90;;
74213;SDS011;62576;55.694;37.494;2022-09-13T14:30:30;12.25;;;3.00;;
74213;SDS011;62576;55.694;37.494;2022-09-13T14:33:03;6.85;;;3.00;;
74213;SDS011;62576;55.694;37.494;2022-09-13T14:35:35;7.22;;;3.00;;
74213;SDS011;62576;55.694;37.494;2022-09-13T14:38:10;8.43;;;2.95;;
74213;SDS011;62576;55.694;37.494;2022-09-13T14:40:45;9.35;;;3.38;;
74213;SDS011;62576;55.694;37.494;2022-09-13T14:43:17;9.85;;;2.70;;
74213;SDS011;62576;55.694;37.494;2022-09-13T14:45:51;13.98;;;2.78;;
74213;SDS011;62576;55.694;37.494;2022-09-13T14:48:26;5.05;;;2.55;;
74213;SDS011;62576;55.694;37.494;2022-09-13T14:51:01;5.65;;;2.60;;
74213;SDS011;62576;55.694;37.494;2022-09-13T14:53:36;8.05;;;2.65;;
74213;SDS011;62576;55.694;37.494;2022-09-13T14:56:07;8.38;;;2.50;;
74213;SDS011;62576;55.694;37.494;2022-09-13T14:58:47;6.65;;;2.70;;
74213;SDS011;62576;55.694;37.494;2022-09-13T15:01:20;7.40;;;2.80;;
74213;SDS011;62576;55.694;37.494;2022-09-13T15:03:57;5.55;;;2.50;;
74213;SDS011;62576;55.694;37.494;2022-09-13T15:06:29;11.15;;;2.78;;
74213;SDS011;62576;55.694;37.494;2022-09-13T15:09:12;10.20;;;4.65;;
74213;SDS011;62576;55.694;37.494;2022-09-13T15:14:33;8.13;;;2.78;;
74213;SDS011;62576;55.694;37.494;2022-09-13T15:17:06;8.88;;;2.42;;
74213;SDS011;62576;55.694;37.494;2022-09-13T15:19:38;3.42;;;2.33;;
74213;SDS011;62576;55.694;37.494;2022-09-13T15:22:13;4.70;;;2.50;;
74213;SDS011;62576;55.694;37.494;2022-09-13T15:24:49;5.60;;;2.60;;
74213;SDS011;62576;55.694;37.494;2022-09-13T15:27:24;7.60;;;2.63;;
74213;SDS011;62576;55.694;37.494;2022-09-13T15:29:56;11.30;;;3.00;;
74213;SDS011;62576;55.694;37.494;2022-09-13T15:32:28;8.45;;;2.55;;
74213;SDS011;62576;55.694;37.494;2022-09-13T15:37:32;5.40;;;2.60;;
74213;SDS011;62576;55.694;37.494;2022-09-13T15:40:11;6.88;;;2.55;;
74213;SDS011;62576;55.694;37.494;2022-09-13T15:42:46;5.05;;;2.58;;
74213;SDS011;62576;55.694;37.494;2022-09-13T15:45:18;7.53;;;2.80;;
74213;SDS011;62576;55.694;37.494;2022-09-13T15:47:51;7.20;;;3.17;;
74213;SDS011;62576;55.694;37.494;2022-09-13T15:50:24;10.07;;;2.80;;
74213;SDS011;62576;55.694;37.494;2022-09-13T15:52:58;11.82;;;2.80;;
74213;SDS011;62576;55.694;37.494;2022-09-13T15:55:29;11.95;;;2.85;;
74213;SDS011;62576;55.694;37.494;2022-09-13T15:58:01;9.50;;;2.88;;
74213;SDS011;62576;55.694;37.494;2022-09-13T16:00:31;5.00;;;2.70;;
74213;SDS011;62576;55.694;37.494;2022-09-13T16:03:01;11.75;;;2.92;;
74213;SDS011;62576;55.694;37.494;2022-09-13T16:05:31;11.45;;;3.15;;
74213;SDS011;62576;55.694;37.494;2022-09-13T16:08:03;12.45;;;3.33;;
74213;SDS011;62576;55.694;37.494;2022-09-13T16:10:33;5.97;;;3.10;;